LFPO METAR and TAF | Updated Today

LFPO METAR

Paris-Orly Airport

Observation time: 399:39 hr. ago

LFPO 130600Z 01006KT 330V030 CAVOK 20/15 Q1009 NOSIG

Need help? Read our tutorial on how to read METARs or read the parsed version below.

Paris-Orly Airport (LFPO) METAR

  • Weather conditions on Tue, 13 Sep 2022 06:00:00 +0000 (399:39 hr. ago):
  • Present conditions: Dry
  • Clouds: Clear skies
  • Visibility: Greater than 10 km
  • Wind: 10 degrees at 6 knots
  • Temperature: 20 celsius
  • Dew point: 15 celsius
  • Pressure: 1009 millibars
  • Remarks: None


Useful to know...